Eureka の空港の天気 - METARとTAF

Eureka ( CWEU / ) - カナダ ヌナブト準州Eureka
飛行場実況気象(Metar)
観測時間04/21 11:00 CDT (04/21 16:00 UTC)
風向・風速西 5m/s
視程10km以上
天気現象細氷
少しの雲 雲底高度 5490m
気温-30℃
湿度75%
気圧1016.2hPa
METARCWEU 211600Z 26009KT 15SM IC FEW180 M30/M33 A3000 RMK AC2 SLP162
過去の天気等 Google飛行場航空写真 Wunderground天気予報

過去48時間のMETAR

飛行場予報(TAF)
データがありません